Time;durP1;ratioP1;P1;durP2;ratioP2;P2;SDS_P1;SDS_P2;PMS_P1;PMS_P2;Temp;Humidity;BMP_temperature;BMP_pressure;BME280_temperature;BME280_humidity;BME280_pressure;Samples;Min_cycle;Max_cycle;Signal;HPM_P1;HPM_P2
2021/08/25 00:01:47;;;;;;;5.15;2.55;;;;;;;;;;4981645;28;20481;-72
2021/08/25 00:04:13;;;;;;;4.72;2.60;;;;;;;;;;4987399;28;20492;-73
2021/08/25 00:06:38;;;;;;;3.95;2.10;;;;;;;;;;4979106;28;20114;-73
2021/08/25 00:09:06;;;;;;;5.38;2.58;;;;;;;;;;4977357;28;20034;-72
2021/08/25 00:11:31;;;;;;;4.18;2.20;;;;;;;;;;4986741;28;20432;-72
2021/08/25 00:13:58;;;;;;;4.18;2.20;;;;;;;;;;4985853;28;20109;-72
2021/08/25 00:16:24;;;;;;;3.30;2.15;;;;;;;;;;4982996;28;20037;-72
2021/08/25 00:18:50;;;;;;;3.92;2.28;;;;;;;;;;4987858;28;20030;-72
2021/08/25 00:21:16;;;;;;;3.95;2.45;;;;;;;;;;4986767;28;20057;-72
2021/08/25 00:23:42;;;;;;;4.68;2.30;;;;;;;;;;4988814;28;20532;-72
2021/08/25 00:26:08;;;;;;;4.85;2.50;;;;;;;;;;4990789;28;20034;-72
2021/08/25 00:28:35;;;;;;;4.63;2.30;;;;;;;;;;4990968;28;20033;-72
2021/08/25 00:31:00;;;;;;;2.83;1.70;;;;;;;;;;4985121;28;20093;-72
2021/08/25 00:33:26;;;;;;;5.32;2.20;;;;;;;;;;4990562;28;20125;-72
2021/08/25 00:35:52;;;;;;;2.80;1.90;;;;;;;;;;4990435;28;20029;-72
2021/08/25 00:38:18;;;;;;;6.82;2.03;;;;;;;;;;4990152;28;20018;-72
2021/08/25 00:40:44;;;;;;;3.97;1.88;;;;;;;;;;4990789;28;20468;-73
2021/08/25 00:43:11;;;;;;;5.55;2.03;;;;;;;;;;4983850;28;20039;-72
2021/08/25 00:45:38;;;;;;;6.40;2.60;;;;;;;;;;4982058;28;20031;-72
2021/08/25 00:48:05;;;;;;;7.05;2.10;;;;;;;;;;4989395;28;20038;-72
2021/08/25 00:50:31;;;;;;;6.50;2.25;;;;;;;;;;4988400;28;20037;-72
2021/08/25 00:52:57;;;;;;;4.45;1.63;;;;;;;;;;4990230;28;20030;-72
2021/08/25 00:55:22;;;;;;;5.63;1.88;;;;;;;;;;4991080;28;20030;-72
2021/08/25 00:57:48;;;;;;;3.75;2.00;;;;;;;;;;4990778;28;20034;-72
2021/08/25 01:00:15;;;;;;;4.53;2.03;;;;;;;;;;4986705;28;20030;-72
2021/08/25 01:02:48;;;;;;;5.57;2.22;;;;;;;;;;4990556;28;20105;-72
2021/08/25 01:05:15;;;;;;;4.32;2.08;;;;;;;;;;4989089;28;20042;-72
2021/08/25 01:07:42;;;;;;;5.28;2.63;;;;;;;;;;4990809;28;20054;-72
2021/08/25 01:10:25;;;;;;;4.93;2.40;;;;;;;;;;4989784;28;20093;-72
2021/08/25 01:12:52;;;;;;;3.28;2.03;;;;;;;;;;4983427;28;20477;-72
2021/08/25 01:15:18;;;;;;;3.20;1.70;;;;;;;;;;4990708;28;20038;-72
2021/08/25 01:17:44;;;;;;;4.38;2.10;;;;;;;;;;4979254;28;20034;-73
2021/08/25 01:20:11;;;;;;;2.80;1.90;;;;;;;;;;4988964;28;20503;-73
2021/08/25 01:22:39;;;;;;;6.88;2.13;;;;;;;;;;4985516;28;20089;-72
2021/08/25 01:25:05;;;;;;;5.55;2.17;;;;;;;;;;4990499;28;20033;-72
2021/08/25 01:27:32;;;;;;;8.15;2.13;;;;;;;;;;4989356;28;20452;-73
2021/08/25 01:29:59;;;;;;;3.30;1.98;;;;;;;;;;4991588;28;20034;-73
2021/08/25 01:32:25;;;;;;;5.60;1.92;;;;;;;;;;4986660;28;20471;-72
2021/08/25 01:34:55;;;;;;;3.30;1.73;;;;;;;;;;4987577;28;20034;-72
2021/08/25 01:37:22;;;;;;;5.50;1.90;;;;;;;;;;4989880;28;20061;-72
2021/08/25 01:39:49;;;;;;;3.38;1.88;;;;;;;;;;4990270;28;20054;-72
2021/08/25 01:42:15;;;;;;;3.15;1.90;;;;;;;;;;4989893;28;20484;-73
2021/08/25 01:44:41;;;;;;;3.15;1.88;;;;;;;;;;4989397;28;20045;-72
2021/08/25 01:47:07;;;;;;;4.45;2.10;;;;;;;;;;4989213;28;20034;-72
2021/08/25 01:49:33;;;;;;;4.57;2.20;;;;;;;;;;4986639;28;20031;-72
2021/08/25 01:51:58;;;;;;;8.15;2.10;;;;;;;;;;4989400;28;20038;-72
2021/08/25 01:54:25;;;;;;;3.58;1.92;;;;;;;;;;4989067;28;20392;-72
2021/08/25 01:56:51;;;;;;;4.55;2.08;;;;;;;;;;4987896;28;20030;-72
2021/08/25 01:59:17;;;;;;;3.55;1.98;;;;;;;;;;4987543;28;20580;-72
2021/08/25 02:01:43;;;;;;;2.63;1.63;;;;;;;;;;4983699;28;20033;-71
2021/08/25 02:04:09;;;;;;;4.45;2.13;;;;;;;;;;4986602;28;20416;-71
2021/08/25 02:06:35;;;;;;;3.58;2.10;;;;;;;;;;4989709;28;20062;-71
2021/08/25 02:09:01;;;;;;;2.72;1.85;;;;;;;;;;4988321;28;20147;-71
2021/08/25 02:11:27;;;;;;;6.22;2.13;;;;;;;;;;4989042;28;20106;-71
2021/08/25 02:13:53;;;;;;;3.72;2.20;;;;;;;;;;4988747;28;20628;-71
2021/08/25 02:16:19;;;;;;;2.85;1.90;;;;;;;;;;4985895;28;20035;-71
2021/08/25 02:18:46;;;;;;;4.60;2.22;;;;;;;;;;4982740;28;20034;-71
2021/08/25 02:21:11;;;;;;;3.25;1.75;;;;;;;;;;4982552;28;20416;-71
2021/08/25 02:23:38;;;;;;;3.30;2.28;;;;;;;;;;4982321;28;20026;-71
2021/08/25 02:26:03;;;;;;;2.95;1.85;;;;;;;;;;4987800;28;20054;-71
2021/08/25 02:28:29;;;;;;;5.28;2.10;;;;;;;;;;4989332;28;20591;-71
2021/08/25 02:30:55;;;;;;;4.10;1.95;;;;;;;;;;4988292;28;20121;-72
2021/08/25 02:33:21;;;;;;;3.17;1.88;;;;;;;;;;4988755;28;20121;-71
2021/08/25 02:35:47;;;;;;;2.60;1.90;;;;;;;;;;4988714;28;20038;-71
2021/08/25 02:38:13;;;;;;;5.35;2.10;;;;;;;;;;4988754;28;20033;-71
2021/08/25 02:40:39;;;;;;;3.88;2.08;;;;;;;;;;4987306;28;20081;-71
2021/08/25 02:43:06;;;;;;;5.35;2.10;;;;;;;;;;4976569;28;20504;-71
2021/08/25 02:45:31;;;;;;;3.72;1.88;;;;;;;;;;4987188;28;20026;-71
2021/08/25 02:47:57;;;;;;;2.88;1.67;;;;;;;;;;4988128;28;20026;-71
2021/08/25 02:50:23;;;;;;;5.53;2.40;;;;;;;;;;4985488;28;20041;-71
2021/08/25 02:52:49;;;;;;;3.45;1.90;;;;;;;;;;4984688;28;20166;-71
2021/08/25 02:55:15;;;;;;;5.63;2.58;;;;;;;;;;4986683;28;20101;-71
2021/08/25 02:57:41;;;;;;;6.05;2.42;;;;;;;;;;4988222;28;20026;-72
2021/08/25 03:00:07;;;;;;;4.57;2.28;;;;;;;;;;4984129;28;20022;-71
2021/08/25 03:02:33;;;;;;;3.25;1.83;;;;;;;;;;4988161;28;20211;-70
2021/08/25 03:04:59;;;;;;;4.28;2.13;;;;;;;;;;4988557;28;20030;-70
2021/08/25 03:07:25;;;;;;;3.55;1.75;;;;;;;;;;4984083;28;20022;-71
2021/08/25 03:09:51;;;;;;;3.67;2.20;;;;;;;;;;4987443;28;20026;-71
2021/08/25 03:12:17;;;;;;;4.53;2.10;;;;;;;;;;4988780;28;20049;-71
2021/08/25 03:14:43;;;;;;;5.10;1.90;;;;;;;;;;4988286;28;20081;-71
2021/08/25 03:17:10;;;;;;;4.22;2.13;;;;;;;;;;4983391;28;20109;-71
2021/08/25 03:19:36;;;;;;;3.30;2.13;;;;;;;;;;4984498;28;20476;-71
2021/08/25 03:22:02;;;;;;;4.07;2.05;;;;;;;;;;4984121;28;20077;-73
2021/08/25 03:24:28;;;;;;;7.68;2.35;;;;;;;;;;4988500;28;20026;-71
2021/08/25 03:26:54;;;;;;;3.53;2.05;;;;;;;;;;4986183;28;20034;-71
2021/08/25 03:29:20;;;;;;;5.15;2.30;;;;;;;;;;4982527;28;20472;-71
2021/08/25 03:31:45;;;;;;;4.15;1.80;;;;;;;;;;4987751;28;20022;-71
2021/08/25 03:34:11;;;;;;;3.67;1.90;;;;;;;;;;4988161;28;20034;-71
2021/08/25 03:36:37;;;;;;;3.25;1.95;;;;;;;;;;4988288;28;20050;-71
2021/08/25 03:39:04;;;;;;;3.03;1.83;;;;;;;;;;4987559;28;20084;-71
2021/08/25 03:41:29;;;;;;;3.15;2.10;;;;;;;;;;4987763;28;20062;-71
2021/08/25 03:43:55;;;;;;;3.47;2.13;;;;;;;;;;4986581;28;20480;-71
2021/08/25 03:46:21;;;;;;;3.92;1.95;;;;;;;;;;4987528;28;20629;-71
2021/08/25 03:48:47;;;;;;;4.95;2.20;;;;;;;;;;4986730;28;20026;-71
2021/08/25 03:51:13;;;;;;;3.30;1.73;;;;;;;;;;4984831;28;20472;-71
2021/08/25 03:53:39;;;;;;;5.03;1.90;;;;;;;;;;4987184;28;20023;-70
2021/08/25 03:56:05;;;;;;;3.30;1.90;;;;;;;;;;4987872;28;20058;-71
2021/08/25 03:58:31;;;;;;;3.90;1.88;;;;;;;;;;4986676;28;20018;-71
2021/08/25 04:00:57;;;;;;;7.65;2.25;;;;;;;;;;4990262;28;20391;-71
2021/08/25 04:03:23;;;;;;;5.82;2.65;;;;;;;;;;4991064;28;20615;-71
2021/08/25 04:05:49;;;;;;;6.15;1.83;;;;;;;;;;4991291;28;20677;-72
2021/08/25 04:08:14;;;;;;;3.78;1.85;;;;;;;;;;4991196;28;20050;-71
2021/08/25 04:10:40;;;;;;;3.65;1.90;;;;;;;;;;4990512;28;20045;-71
2021/08/25 04:13:06;;;;;;;4.07;2.05;;;;;;;;;;4991987;28;20034;-72
2021/08/25 04:15:32;;;;;;;7.18;2.35;;;;;;;;;;4991425;28;20033;-71
2021/08/25 04:17:58;;;;;;;4.65;2.13;;;;;;;;;;4987707;28;20045;-71
2021/08/25 04:20:25;;;;;;;6.82;2.20;;;;;;;;;;4987223;28;20062;-72
2021/08/25 04:22:51;;;;;;;4.68;2.30;;;;;;;;;;4984867;28;20026;-71
2021/08/25 04:25:17;;;;;;;5.32;2.30;;;;;;;;;;4990566;28;20033;-72
2021/08/25 04:27:43;;;;;;;3.10;2.22;;;;;;;;;;4990403;28;20030;-71
2021/08/25 04:30:09;;;;;;;3.00;1.75;;;;;;;;;;4995509;28;20133;-72
2021/08/25 04:32:35;;;;;;;4.07;2.28;;;;;;;;;;4991199;28;20502;-71
2021/08/25 04:35:01;;;;;;;3.67;1.85;;;;;;;;;;4991516;28;20113;-71
2021/08/25 04:37:27;;;;;;;3.97;1.95;;;;;;;;;;4991162;28;20053;-71
2021/08/25 04:39:52;;;;;;;6.15;1.95;;;;;;;;;;4990674;28;20030;-71
2021/08/25 04:42:18;;;;;;;3.35;2.13;;;;;;;;;;4983179;28;20077;-71
2021/08/25 04:44:44;;;;;;;2.53;1.70;;;;;;;;;;4991306;28;20061;-72
2021/08/25 04:47:10;;;;;;;3.83;2.15;;;;;;;;;;4991422;28;20033;-71
2021/08/25 04:49:36;;;;;;;4.03;2.22;;;;;;;;;;4988888;28;20050;-71
2021/08/25 04:52:02;;;;;;;4.05;2.03;;;;;;;;;;4990332;28;20038;-72
2021/08/25 04:54:28;;;;;;;4.03;1.85;;;;;;;;;;4986893;28;20080;-71
2021/08/25 04:56:54;;;;;;;6.47;2.72;;;;;;;;;;4987034;28;20110;-75
2021/08/25 04:59:20;;;;;;;3.85;1.92;;;;;;;;;;4988383;28;20018;-74
2021/08/25 05:01:46;;;;;;;3.75;2.05;;;;;;;;;;4992853;28;20033;-74
2021/08/25 05:04:15;;;;;;;3.78;2.30;;;;;;;;;;4999078;28;20404;-73
2021/08/25 05:06:41;;;;;;;3.97;1.83;;;;;;;;;;4986519;28;20058;-74
2021/08/25 05:09:07;;;;;;;4.18;2.22;;;;;;;;;;4989248;28;20050;-72
2021/08/25 05:11:33;;;;;;;6.70;2.03;;;;;;;;;;4990348;28;20030;-72
2021/08/25 05:13:59;;;;;;;3.13;1.98;;;;;;;;;;4982065;28;20083;-72
2021/08/25 05:16:25;;;;;;;4.18;2.20;;;;;;;;;;4986557;28;20034;-73
2021/08/25 05:18:51;;;;;;;4.25;2.13;;;;;;;;;;4990156;28;20109;-73
2021/08/25 05:21:17;;;;;;;6.65;2.40;;;;;;;;;;4985702;28;20049;-72
2021/08/25 05:23:42;;;;;;;7.93;2.75;;;;;;;;;;4985121;28;20030;-72
2021/08/25 05:26:08;;;;;;;6.53;2.78;;;;;;;;;;4986278;28;20029;-72
2021/08/25 05:28:35;;;;;;;7.70;3.30;;;;;;;;;;4986969;28;20037;-73
2021/08/25 05:31:01;;;;;;;10.35;3.03;;;;;;;;;;4987206;28;20038;-72
2021/08/25 05:33:27;;;;;;;6.63;3.08;;;;;;;;;;4986304;28;20038;-72
2021/08/25 05:35:53;;;;;;;6.75;2.63;;;;;;;;;;4988188;28;20026;-73
2021/08/25 05:38:18;;;;;;;6.65;3.30;;;;;;;;;;4986003;28;20117;-73
2021/08/25 05:40:44;;;;;;;9.70;3.65;;;;;;;;;;4988585;28;20034;-73
2021/08/25 05:43:10;;;;;;;6.53;3.17;;;;;;;;;;4990428;28;20035;-73
2021/08/25 05:45:36;;;;;;;7.72;3.25;;;;;;;;;;4991584;28;20030;-73
2021/08/25 05:48:02;;;;;;;10.68;3.65;;;;;;;;;;4994458;28;20041;-73
2021/08/25 05:50:28;;;;;;;10.38;3.53;;;;;;;;;;4981593;28;20027;-71
2021/08/25 05:52:54;;;;;;;7.25;3.58;;;;;;;;;;4983352;28;20060;-71
2021/08/25 05:55:20;;;;;;;6.07;3.25;;;;;;;;;;4989627;28;20413;-72
2021/08/25 05:57:46;;;;;;;7.03;3.55;;;;;;;;;;4971986;28;20461;-72
2021/08/25 06:00:16;;;;;;;8.52;3.63;;;;;;;;;;4994136;28;20030;-72
2021/08/25 06:02:42;;;;;;;8.77;3.58;;;;;;;;;;4989323;28;20058;-72
2021/08/25 06:05:09;;;;;;;5.72;3.38;;;;;;;;;;4981614;28;20026;-72
2021/08/25 06:07:34;;;;;;;7.72;4.20;;;;;;;;;;4990058;28;20523;-72
2021/08/25 06:10:01;;;;;;;8.48;3.58;;;;;;;;;;4987925;28;20029;-72
2021/08/25 06:12:27;;;;;;;5.93;3.35;;;;;;;;;;4970641;28;20089;-72
2021/08/25 06:14:53;;;;;;;6.50;3.35;;;;;;;;;;4996667;28;20041;-72
2021/08/25 06:17:19;;;;;;;7.15;3.55;;;;;;;;;;4985854;28;20029;-72
2021/08/25 06:19:45;;;;;;;11.27;3.58;;;;;;;;;;4983203;28;20493;-72
2021/08/25 06:22:11;;;;;;;6.80;3.30;;;;;;;;;;4983931;28;20034;-72
2021/08/25 06:24:37;;;;;;;10.82;3.72;;;;;;;;;;4975848;28;20036;-72
2021/08/25 06:27:03;;;;;;;9.05;3.47;;;;;;;;;;4994966;28;20129;-72
2021/08/25 06:29:29;;;;;;;8.00;3.25;;;;;;;;;;4992161;28;20033;-72
2021/08/25 06:31:55;;;;;;;6.82;2.97;;;;;;;;;;5000344;28;20026;-72
2021/08/25 06:34:21;;;;;;;10.82;3.17;;;;;;;;;;4988401;28;20901;-72
2021/08/25 06:36:47;;;;;;;7.78;2.92;;;;;;;;;;4997180;28;20030;-72
2021/08/25 06:39:13;;;;;;;5.15;3.13;;;;;;;;;;4988720;28;20038;-72
2021/08/25 06:41:39;;;;;;;9.02;3.17;;;;;;;;;;4986852;28;20033;-72
2021/08/25 06:44:05;;;;;;;12.75;3.47;;;;;;;;;;4989168;28;20109;-72
2021/08/25 06:46:31;;;;;;;8.50;3.78;;;;;;;;;;4987948;28;20058;-72
2021/08/25 06:48:57;;;;;;;11.82;3.88;;;;;;;;;;4993466;28;20425;-72
2021/08/25 06:51:23;;;;;;;11.65;3.80;;;;;;;;;;4987542;28;20105;-72
2021/08/25 06:53:49;;;;;;;6.30;3.25;;;;;;;;;;4991359;28;20061;-72
2021/08/25 06:56:15;;;;;;;8.93;3.60;;;;;;;;;;4997041;28;20041;-73
2021/08/25 06:58:41;;;;;;;7.20;2.97;;;;;;;;;;4980612;28;20027;-73
2021/08/25 07:01:06;;;;;;;13.68;3.72;;;;;;;;;;4991599;28;20435;-73
2021/08/25 07:03:36;;;;;;;6.05;3.35;;;;;;;;;;4990000;28;20140;-73
2021/08/25 07:06:02;;;;;;;5.70;2.90;;;;;;;;;;4987909;28;20109;-73
2021/08/25 07:08:28;;;;;;;5.65;2.58;;;;;;;;;;4994765;28;20029;-73
2021/08/25 07:10:54;;;;;;;5.07;2.55;;;;;;;;;;4985108;28;20453;-73
2021/08/25 07:13:20;;;;;;;5.75;2.70;;;;;;;;;;4988992;28;20097;-73
2021/08/25 07:15:46;;;;;;;4.70;2.30;;;;;;;;;;4996887;28;20060;-73
2021/08/25 07:18:12;;;;;;;5.95;2.55;;;;;;;;;;4983344;28;20027;-73
2021/08/25 07:20:38;;;;;;;3.55;2.28;;;;;;;;;;4995250;28;20434;-73
2021/08/25 07:23:03;;;;;;;5.10;2.20;;;;;;;;;;4988445;28;20643;-73
2021/08/25 07:25:29;;;;;;;3.88;1.98;;;;;;;;;;4991830;28;20026;-73
2021/08/25 07:27:55;;;;;;;6.10;2.00;;;;;;;;;;4988466;28;20101;-73
2021/08/25 07:30:21;;;;;;;1.88;1.40;;;;;;;;;;4992509;28;20042;-73
2021/08/25 07:32:47;;;;;;;4.78;2.33;;;;;;;;;;4985965;28;20266;-73
2021/08/25 07:35:13;;;;;;;4.00;2.03;;;;;;;;;;4991669;28;20506;-73
2021/08/25 07:37:40;;;;;;;3.60;1.80;;;;;;;;;;4993246;28;20042;-73
2021/08/25 07:40:29;;;;;;;4.97;1.92;;;;;;;;;;4996412;28;20030;-72
2021/08/25 07:42:55;;;;;;;5.35;2.20;;;;;;;;;;4986555;28;20456;-73
2021/08/25 07:45:21;;;;;;;2.25;1.38;;;;;;;;;;4992517;28;20031;-73
2021/08/25 07:47:47;;;;;;;5.32;2.33;;;;;;;;;;4991662;28;20170;-72
2021/08/25 07:50:12;;;;;;;5.47;2.00;;;;;;;;;;4985105;28;20398;-72
2021/08/25 07:52:38;;;;;;;4.72;1.90;;;;;;;;;;4982933;28;20088;-72
2021/08/25 07:55:04;;;;;;;3.88;1.88;;;;;;;;;;4992197;28;20039;-72
2021/08/25 07:57:30;;;;;;;3.88;2.00;;;;;;;;;;4992178;28;20476;-73
2021/08/25 07:59:56;;;;;;;4.68;2.17;;;;;;;;;;4991773;28;20065;-72
2021/08/25 08:02:22;;;;;;;5.05;1.90;;;;;;;;;;4992300;28;20030;-73
2021/08/25 08:04:48;;;;;;;7.20;2.10;;;;;;;;;;4990390;28;20527;-73
2021/08/25 08:07:14;;;;;;;3.60;1.77;;;;;;;;;;4991370;28;20030;-73
2021/08/25 08:09:40;;;;;;;3.10;1.90;;;;;;;;;;4992212;28;20053;-72
2021/08/25 08:12:07;;;;;;;3.50;1.92;;;;;;;;;;4991776;28;20026;-73
2021/08/25 08:14:33;;;;;;;6.38;1.90;;;;;;;;;;4984553;28;20026;-73
2021/08/25 08:17:01;;;;;;;3.67;1.73;;;;;;;;;;4991457;28;20026;-73
2021/08/25 08:19:30;;;;;;;4.45;2.08;;;;;;;;;;4990557;28;20033;-73
2021/08/25 08:21:58;;;;;;;8.38;2.03;;;;;;;;;;4985778;28;20019;-73
2021/08/25 08:24:24;;;;;;;3.95;2.20;;;;;;;;;;4973294;28;20038;-73
2021/08/25 08:26:50;;;;;;;4.00;2.22;;;;;;;;;;4991440;28;20022;-73
2021/08/25 08:29:16;;;;;;;5.38;2.08;;;;;;;;;;4991472;28;20034;-73
2021/08/25 08:31:42;;;;;;;3.60;2.05;;;;;;;;;;4979718;28;20057;-72
2021/08/25 08:34:08;;;;;;;3.08;1.73;;;;;;;;;;4991355;28;20034;-73
2021/08/25 08:36:34;;;;;;;4.00;1.65;;;;;;;;;;4991687;28;20105;-73
2021/08/25 08:38:59;;;;;;;4.07;1.83;;;;;;;;;;4990832;28;20117;-73
2021/08/25 08:41:26;;;;;;;4.25;1.70;;;;;;;;;;4990606;28;20064;-72
2021/08/25 08:43:53;;;;;;;2.75;1.70;;;;;;;;;;4984353;28;20225;-73
2021/08/25 08:46:20;;;;;;;3.97;1.85;;;;;;;;;;4991704;28;20759;-73
2021/08/25 08:48:47;;;;;;;2.53;1.67;;;;;;;;;;4990602;28;20113;-73
2021/08/25 08:51:16;;;;;;;3.60;2.15;;;;;;;;;;4984609;28;20030;-72
2021/08/25 08:53:42;;;;;;;3.13;1.83;;;;;;;;;;4975366;28;20070;-73
2021/08/25 08:56:08;;;;;;;3.22;1.90;;;;;;;;;;4991090;28;20435;-73
2021/08/25 08:58:34;;;;;;;8.18;2.63;;;;;;;;;;4991177;28;20026;-73
2021/08/25 09:01:00;;;;;;;2.85;1.88;;;;;;;;;;4989817;28;20042;-73
2021/08/25 09:03:26;;;;;;;5.93;2.58;;;;;;;;;;4989974;28;20076;-73
2021/08/25 09:05:59;;;;;;;5.47;2.40;;;;;;;;;;4990775;28;20026;-73
2021/08/25 09:08:30;;;;;;;4.25;2.08;;;;;;;;;;4990916;28;20396;-73
2021/08/25 09:11:01;;;;;;;3.88;2.15;;;;;;;;;;4990830;28;20074;-73
2021/08/25 09:13:33;;;;;;;3.20;1.70;;;;;;;;;;4990454;28;20034;-73
2021/08/25 09:15:59;;;;;;;4.40;2.25;;;;;;;;;;4990768;28;20647;-73
2021/08/25 09:18:25;;;;;;;7.32;2.17;;;;;;;;;;4990319;28;20109;-73
2021/08/25 09:20:51;;;;;;;3.78;1.85;;;;;;;;;;4990371;28;20384;-73
2021/08/25 09:23:18;;;;;;;2.83;1.92;;;;;;;;;;4990761;28;20019;-73
2021/08/25 09:25:44;;;;;;;3.78;1.95;;;;;;;;;;4990689;28;20023;-73
2021/08/25 09:28:11;;;;;;;3.72;2.08;;;;;;;;;;4986558;28;20925;-73
2021/08/25 09:30:54;;;;;;;4.30;2.00;;;;;;;;;;4997184;28;20026;-73
2021/08/25 09:33:21;;;;;;;4.15;1.90;;;;;;;;;;4990567;28;20025;-73
2021/08/25 09:35:50;;;;;;;4.78;2.25;;;;;;;;;;4990316;28;20476;-72
2021/08/25 09:38:20;;;;;;;3.67;2.08;;;;;;;;;;4990548;28;20022;-73
2021/08/25 09:40:48;;;;;;;5.70;2.08;;;;;;;;;;4989400;28;20041;-73
2021/08/25 09:43:28;;;;;;;3.33;2.00;;;;;;;;;;4990183;28;20743;-73
2021/08/25 09:46:07;;;;;;;8.55;2.30;;;;;;;;;;4989898;28;20035;-73
2021/08/25 09:48:37;;;;;;;5.15;2.70;;;;;;;;;;4990165;28;20030;-73
2021/08/25 09:51:03;;;;;;;5.63;2.53;;;;;;;;;;4990111;28;20033;-73
2021/08/25 09:53:29;;;;;;;5.55;2.33;;;;;;;;;;4976718;28;20023;-73
2021/08/25 09:55:55;;;;;;;3.65;2.38;;;;;;;;;;4969776;28;20086;-73
2021/08/25 09:58:23;;;;;;;5.57;2.00;;;;;;;;;;4984804;28;20026;-73
2021/08/25 10:00:49;;;;;;;4.75;2.50;;;;;;;;;;4988636;28;20026;-72
2021/08/25 10:03:15;;;;;;;5.07;2.25;;;;;;;;;;4989624;28;20081;-73
2021/08/25 10:05:45;;;;;;;5.93;2.08;;;;;;;;;;4983825;28;20055;-73
2021/08/25 10:08:11;;;;;;;5.72;1.88;;;;;;;;;;4970942;28;20109;-72
2021/08/25 10:10:37;;;;;;;5.97;2.30;;;;;;;;;;4989667;28;20064;-73
2021/08/25 10:13:04;;;;;;;5.40;2.30;;;;;;;;;;4979720;28;20493;-73
2021/08/25 10:15:41;;;;;;;6.13;2.22;;;;;;;;;;4988961;28;20109;-73
2021/08/25 10:18:26;;;;;;;5.53;2.25;;;;;;;;;;4989265;28;20097;-72
2021/08/25 10:20:52;;;;;;;7.32;2.45;;;;;;;;;;4989601;28;20019;-73
2021/08/25 10:23:18;;;;;;;6.03;2.53;;;;;;;;;;4989227;28;20037;-73
2021/08/25 10:26:09;;;;;;;4.25;2.05;;;;;;;;;;4985849;28;20489;-73
2021/08/25 10:28:57;;;;;;;3.60;2.07;;;;;;;;;;4989121;28;20410;-72
2021/08/25 10:31:26;;;;;;;4.32;2.10;;;;;;;;;;4994885;28;20077;-72
2021/08/25 10:34:10;;;;;;;6.45;2.33;;;;;;;;;;4988710;28;20080;-72
2021/08/25 10:36:38;;;;;;;4.43;2.20;;;;;;;;;;4989681;28;20045;-73
2021/08/25 10:39:24;;;;;;;7.28;2.25;;;;;;;;;;4987650;28;20030;-72
2021/08/25 10:41:50;;;;;;;3.17;1.67;;;;;;;;;;4980216;28;20073;-73
2021/08/25 10:44:36;;;;;;;3.90;1.75;;;;;;;;;;4988566;28;20042;-73
2021/08/25 10:47:03;;;;;;;2.53;1.77;;;;;;;;;;4989072;28;20077;-73
2021/08/25 10:49:33;;;;;;;5.13;1.90;;;;;;;;;;4987919;28;20433;-72
2021/08/25 10:52:18;;;;;;;5.10;2.25;;;;;;;;;;4982932;28;20066;-73
2021/08/25 10:54:48;;;;;;;4.95;2.00;;;;;;;;;;4988655;28;20099;-73
2021/08/25 10:57:15;;;;;;;4.43;2.20;;;;;;;;;;4988721;28;20175;-73
2021/08/25 10:59:41;;;;;;;4.00;2.10;;;;;;;;;;4989156;28;20030;-73
2021/08/25 11:02:07;;;;;;;2.97;1.80;;;;;;;;;;4988042;28;20024;-73
2021/08/25 11:04:34;;;;;;;4.35;2.20;;;;;;;;;;4980666;28;20046;-72
2021/08/25 11:07:10;;;;;;;3.58;2.15;;;;;;;;;;4982231;28;20038;-73
2021/08/25 11:09:51;;;;;;;7.78;2.25;;;;;;;;;;4988856;28;20034;-73
2021/08/25 11:12:18;;;;;;;5.07;1.92;;;;;;;;;;4989021;28;20076;-72
2021/08/25 11:14:47;;;;;;;6.30;2.22;;;;;;;;;;4984328;28;20100;-72
2021/08/25 11:17:25;;;;;;;8.77;2.50;;;;;;;;;;4988702;28;20042;-72
2021/08/25 11:19:56;;;;;;;4.15;2.22;;;;;;;;;;4983908;28;20080;-73
2021/08/25 11:22:27;;;;;;;4.53;2.05;;;;;;;;;;4988851;28;20029;-73
2021/08/25 11:24:54;;;;;;;9.27;2.35;;;;;;;;;;4986718;28;20113;-73
2021/08/25 11:27:52;;;;;;;3.05;2.05;;;;;;;;;;4978246;28;20039;-73
2021/08/25 11:30:25;;;;;;;4.18;1.90;;;;;;;;;;4985415;28;20038;-72
2021/08/25 11:32:53;;;;;;;6.07;2.17;;;;;;;;;;4983106;28;20026;-74
2021/08/25 11:35:22;;;;;;;3.90;2.13;;;;;;;;;;4988123;28;20054;-71
2021/08/25 11:37:49;;;;;;;3.80;2.22;;;;;;;;;;4988565;28;20049;-72
2021/08/25 11:40:15;;;;;;;8.52;2.53;;;18.30;99.90;;;;;;4988176;28;20485;-73
2021/08/25 11:42:41;;;;;;;4.65;2.30;;;22.90;63.80;;;;;;4988463;28;20057;-74
2021/08/25 11:45:18;;;;;;;3.58;2.00;;;22.90;63.80;;;;;;4987877;28;20061;-72
2021/08/25 11:47:54;;;;;;;7.57;2.45;;;23.20;62.00;;;;;;4983597;28;20117;-72
2021/08/25 11:50:21;;;;;;;5.15;2.28;;;23.50;60.80;;;;;;4982492;28;20126;-74
2021/08/25 11:52:48;;;;;;;4.30;2.40;;;23.60;62.70;;;;;;4988524;28;20022;-72
2021/08/25 11:55:15;;;;;;;6.47;2.20;;;24.00;60.00;;;;;;4986110;28;20504;-72
2021/08/25 11:57:43;;;;;;;4.05;2.30;;;24.50;58.30;;;;;;4988247;28;20110;-72
2021/08/25 12:00:10;;;;;;;4.45;2.60;;;24.70;56.60;;;;;;4988144;28;20023;-72
2021/08/25 12:03:00;;;;;;;3.15;2.33;;;25.20;58.50;;;;;;4988414;28;20022;-72
2021/08/25 12:05:34;;;;;;;5.40;2.70;;;25.20;55.60;;;;;;4985678;28;20056;-71
2021/08/25 12:08:04;;;;;;;4.82;2.47;;;25.00;56.30;;;;;;4988208;28;20026;-71
2021/08/25 12:10:30;;;;;;;4.13;2.20;;;25.50;57.70;;;;;;4988415;28;20382;-71
2021/08/25 12:12:58;;;;;;;6.40;2.72;;;25.80;54.40;;;;;;4988256;28;20029;-72
2021/08/25 12:15:49;;;;;;;4.60;2.60;;;25.90;55.10;;;;;;4988148;28;20027;-72
2021/08/25 12:18:20;;;;;;;4.72;3.08;;;25.40;54.20;;;;;;4983725;28;20092;-72
2021/08/25 12:20:52;;;;;;;4.32;2.70;;;24.80;55.50;;;;;;4991453;28;20027;-72
2021/08/25 12:23:20;;;;;;;4.32;2.63;;;24.10;57.20;;;;;;4991720;28;20058;-71
2021/08/25 12:25:55;;;;;;;6.30;2.88;;;23.50;59.10;;;;;;4991415;28;20026;-71
2021/08/25 12:28:36;;;;;;;6.68;2.63;;;23.00;60.20;;;;;;4991785;28;20030;-71
2021/08/25 12:31:19;;;;;;;4.78;2.78;;;22.60;62.20;;;;;;4991830;28;20451;-71
2021/08/25 12:34:14;;;;;;;5.45;2.17;;;23.10;62.30;;;;;;4984773;28;20036;-72
2021/08/25 12:36:52;;;;;;;3.47;2.67;;;24.40;58.70;;;;;;4991169;28;20653;-72
2021/08/25 12:39:21;;;;;;;4.38;2.28;;;24.90;57.20;;;;;;4991483;28;20078;-72
2021/08/25 12:41:48;;;;;;;4.78;2.60;;;25.00;56.90;;;;;;4991453;28;20023;-71
2021/08/25 12:44:14;;;;;;;5.32;2.47;;;24.70;56.90;;;;;;4990671;28;20768;-74
2021/08/25 12:46:55;;;;;;;4.18;2.63;;;24.20;57.50;;;;;;4991507;28;20027;-74
2021/08/25 12:49:23;;;;;;;5.82;2.35;;;23.70;58.80;;;;;;4986714;28;20069;-71
2021/08/25 12:51:49;;;;;;;6.10;2.55;;;23.50;59.80;;;;;;4989719;28;20556;-75
2021/08/25 12:54:16;;;;;;;5.70;3.03;;;24.00;60.90;;;;;;4990792;28;20149;-71
2021/08/25 12:56:41;;;;;;;5.00;2.53;;;24.60;58.20;;;;;;4991285;28;20018;-72
2021/08/25 12:59:07;;;;;;;3.63;2.55;;;25.60;56.70;;;;;;4990199;28;20025;-72
2021/08/25 13:01:33;;;;;;;5.53;2.67;;;;;;;;;;4991346;28;20025;-72
2021/08/25 13:03:59;;;;;;;3.63;2.63;;;;;;;;;;4983269;28;20748;-72
2021/08/25 13:06:24;;;;;;;6.95;2.50;;;26.20;54.00;;;;;;4992368;28;20679;-74
2021/08/25 13:08:50;;;;;;;4.85;2.45;;;26.40;51.90;;;;;;4987347;28;20124;-73
2021/08/25 13:11:16;;;;;;;4.20;2.65;;;25.80;53.50;;;;;;4990630;28;20033;-73
2021/08/25 13:13:42;;;;;;;8.60;2.35;;;25.40;54.50;;;;;;4983598;28;20447;-72
2021/08/25 13:16:07;;;;;;;7.32;2.72;;;25.40;55.50;;;;;;4990648;28;20125;-72
2021/08/25 13:18:33;;;;;;;11.45;3.28;;;25.40;55.00;;;;;;4978822;28;20026;-73
2021/08/25 13:20:58;;;;;;;3.15;2.25;;;25.40;54.20;;;;;;4990743;28;20033;-72
2021/08/25 13:23:24;;;;;;;5.00;2.50;;;25.10;54.70;;;;;;4989364;28;20112;-73
2021/08/25 13:25:49;;;;;;;5.43;2.50;;;25.00;54.60;;;;;;4990264;28;20030;-73
2021/08/25 13:28:15;;;;;;;3.67;2.22;;;25.10;54.50;;;;;;4979708;28;20089;-73
2021/08/25 13:30:40;;;;;;;6.85;2.60;;;24.70;54.80;;;;;;4986779;28;20038;-74
2021/08/25 13:33:06;;;;;;;3.38;2.40;;;24.30;55.80;;;;;;4981730;28;20487;-74
2021/08/25 13:35:31;;;;;;;4.45;2.28;;;24.50;56.90;;;;;;4990564;28;20026;-73
2021/08/25 13:37:58;;;;;;;3.03;2.15;;;24.90;55.90;;;;;;4989220;28;20027;-72
2021/08/25 13:40:23;;;;;;;4.38;2.20;;;24.90;52.70;;;;;;4989803;28;20038;-74
2021/08/25 13:42:49;;;;;;;5.78;2.40;;;24.50;54.60;;;;;;4987676;28;20037;-74
2021/08/25 13:45:15;;;;;;;3.13;2.15;;;24.10;55.40;;;;;;4990024;28;20388;-73
2021/08/25 13:47:40;;;;;;;3.60;2.10;;;23.70;56.00;;;;;;4990116;28;20034;-75
2021/08/25 13:50:07;;;;;;;6.50;2.30;;;23.40;57.30;;;;;;4987967;28;20062;-72
2021/08/25 13:52:32;;;;;;;4.32;2.15;;;23.10;58.10;;;;;;4987959;28;20030;-72
2021/08/25 13:54:58;;;;;;;3.63;2.40;;;22.80;59.10;;;;;;4987472;28;20092;-72
2021/08/25 13:57:23;;;;;;;7.28;3.03;;;22.70;58.80;;;;;;4989461;28;20034;-72
2021/08/25 13:59:50;;;;;;;3.95;2.47;;;22.60;59.20;;;;;;4989604;28;20026;-73
2021/08/25 14:02:17;;;;;;;4.55;2.42;;;22.70;59.10;;;;;;4988832;28;20025;-72
2021/08/25 14:04:43;;;;;;;8.50;2.17;;;22.90;58.60;;;;;;4989374;28;20400;-73
2021/08/25 14:07:09;;;;;;;4.72;2.00;;;23.20;58.00;;;;;;4986955;28;20388;-72
2021/08/25 14:09:34;;;;;;;3.97;2.10;;;23.70;57.60;;;;;;4989186;28;20495;-72
2021/08/25 14:12:10;;;;;;;2.88;1.92;;;24.30;56.10;;;;;;4982664;28;20232;-73
2021/08/25 14:14:36;;;;;;;3.28;2.20;;;24.70;53.80;;;;;;4986592;28;20499;-74
2021/08/25 14:17:02;;;;;;;5.75;2.17;;;25.00;53.30;;;;;;4987582;28;20046;-73
2021/08/25 14:19:28;;;;;;;4.38;2.35;;;24.70;53.20;;;;;;4988884;28;20065;-73
2021/08/25 14:21:53;;;;;;;4.30;2.28;;;24.50;55.10;;;;;;4986016;28;20038;-75